Details for EasyJet at EGNT




Go Back


Latest METAR
Local Time

EGNT 212320Z 29007KT CAVOK 10/05 Q1028

22/06/2018, 00:32:02

Description
Results
EasyJet Logo
Number of Pilots based at EGNT
1 Pilots Based here
Number of EasyJet Flights Departed from EGNT
3 Flights Departed
Number of EasyJet Flights Arrived at EGNT
4 Flights Arrived
Number of EasyJet Schedules Departing from EGNT
41 Schedules
Number of EasyJet Schedules Arriving at EGNT
43 Schedules
Number of EasyJet Schedules Departing from EGNT availible today
12 Schedules Today
Number of EasyJet Schedules Arriving at EGNT availible today
12 Schedules Today
Average Landing Rate at EGNT
-264 fpm
EasyJet Average Landing Rate at EGNT
-265 fpm
Total Fuel Purchased at EGNT by EasyJet
6,593.42 kgs / 14,535.85 lbs

Pilots Based at EGNT


Pilot ID
Pilot Name
Pilot Rank
No. of Flights
No. of Flying Hours
Michael Gow
119
366.46
Content